Time;durP1;ratioP1;P1;durP2;ratioP2;P2;SDS_P1;SDS_P2;PMS_P1;PMS_P2;Temp;Humidity;BMP_temperature;BMP_pressure;BME280_temperature;BME280_humidity;BME280_pressure;Samples;Min_cycle;Max_cycle;Signal;HPM_P1;HPM_P2
2022/11/27 00:01:43;;;;;;;0.88;0.88;;;2.40;99.90;;;;;;4957004;28;20264;-70
2022/11/27 00:04:10;;;;;;;0.40;0.40;;;2.40;99.90;;;;;;4956963;28;20756;-68
2022/11/27 00:06:38;;;;;;;0.40;0.40;;;2.40;99.90;;;;;;4956501;28;20549;-68
2022/11/27 00:09:07;;;;;;;0.40;0.40;;;2.30;99.90;;;;;;4956113;28;20225;-70
2022/11/27 00:11:32;;;;;;;0.40;0.40;;;2.40;99.90;;;;;;4956569;28;20210;-67
2022/11/27 00:13:59;;;;;;;1.17;1.17;;;2.30;99.90;;;;;;4956627;28;20191;-69
2022/11/27 00:16:25;;;;;;;0.40;0.40;;;2.30;99.90;;;;;;4956255;28;20221;-67
2022/11/27 00:18:51;;;;;;;0.30;0.30;;;2.40;99.90;;;;;;4955881;28;20183;-70
2022/11/27 00:21:23;;;;;;;0.30;0.30;;;2.40;99.90;;;;;;4956165;28;20180;-67
2022/11/27 00:23:50;;;;;;;0.30;0.30;;;2.30;99.90;;;;;;4956382;28;20459;-70
2022/11/27 00:26:16;;;;;;;0.45;0.45;;;2.20;99.90;;;;;;4956246;28;20201;-69
2022/11/27 00:28:42;;;;;;;0.30;0.30;;;2.30;99.90;;;;;;4955742;28;20639;-68
2022/11/27 00:31:17;;;;;;;0.30;0.30;;;2.30;99.90;;;;;;4956032;28;20430;-70
2022/11/27 00:33:43;;;;;;;0.30;0.30;;;2.20;99.90;;;;;;4955987;28;20417;-68
2022/11/27 00:36:10;;;;;;;0.30;0.30;;;2.20;99.90;;;;;;4955750;28;20287;-69
2022/11/27 00:38:37;;;;;;;0.30;0.30;;;2.20;99.90;;;;;;4955987;28;20182;-69
2022/11/27 00:41:15;;;;;;;0.30;0.30;;;2.20;99.90;;;;;;4955819;28;20185;-67
2022/11/27 00:43:53;;;;;;;0.30;0.30;;;2.30;99.90;;;;;;4955767;28;20205;-68
2022/11/27 00:46:25;;;;;;;0.30;0.30;;;2.30;99.90;;;;;;4953463;28;20205;-70
2022/11/27 00:48:51;;;;;;;0.30;0.30;;;2.30;99.90;;;;;;4955658;28;20197;-69
2022/11/27 00:51:19;;;;;;;0.30;0.30;;;2.40;99.90;;;;;;4954958;28;20176;-69
2022/11/27 00:53:45;;;;;;;0.30;0.30;;;2.30;99.90;;;;;;4955651;28;20178;-68
2022/11/27 00:56:23;;;;;;;3.38;2.45;;;2.30;99.90;;;;;;4955627;28;20720;-68
2022/11/27 00:58:49;;;;;;;0.40;0.40;;;2.20;99.90;;;;;;4955545;28;20202;-69
2022/11/27 01:01:20;;;;;;;0.40;0.40;;;2.30;99.90;;;;;;4955629;28;20192;-68
2022/11/27 01:03:47;;;;;;;0.40;0.40;;;2.20;99.90;;;;;;4954075;29;20351;-68
2022/11/27 01:06:13;;;;;;;0.30;0.30;;;2.00;99.90;;;;;;4955379;28;20244;-68
2022/11/27 01:08:40;;;;;;;0.50;0.50;;;2.00;99.90;;;;;;4955216;28;20698;-69
2022/11/27 01:11:06;;;;;;;0.32;0.32;;;2.00;99.90;;;;;;4955385;28;20536;-69
2022/11/27 01:13:34;;;;;;;0.30;0.30;;;2.00;99.90;;;;;;4955382;28;20590;-67
2022/11/27 01:16:02;;;;;;;0.70;0.70;;;2.00;99.90;;;;;;4955018;28;20206;-67
2022/11/27 01:18:28;;;;;;;0.40;0.40;;;2.00;99.90;;;;;;4955304;28;20186;-68
2022/11/27 01:20:54;;;;;;;0.30;0.30;;;2.00;99.90;;;;;;4955259;28;20644;-70
2022/11/27 01:23:21;;;;;;;0.30;0.30;;;2.00;99.90;;;;;;4955306;28;20209;-67
2022/11/27 01:25:47;;;;;;;0.70;0.70;;;2.00;99.90;;;;;;4955134;28;20179;-67
2022/11/27 01:28:14;;;;;;;0.30;0.30;;;2.00;99.90;;;;;;4955547;28;20181;-68
2022/11/27 01:30:39;;;;;;;0.30;0.30;;;2.10;99.90;;;;;;4955129;28;20175;-69
2022/11/27 01:33:05;;;;;;;0.60;0.60;;;2.20;99.90;;;;;;4955189;28;20704;-69
2022/11/27 01:35:31;;;;;;;0.30;0.30;;;2.20;99.90;;;;;;4955199;28;20633;-68
2022/11/27 01:37:57;;;;;;;0.98;0.63;;;2.20;99.90;;;;;;4955054;28;20201;-68
2022/11/27 01:40:23;;;;;;;0.83;0.80;;;2.10;99.90;;;;;;4954985;28;20224;-70
2022/11/27 01:42:49;;;;;;;0.40;0.40;;;2.10;99.90;;;;;;4955071;28;20197;-68
2022/11/27 01:45:18;;;;;;;0.40;0.40;;;2.20;99.90;;;;;;4953865;29;20601;-69
2022/11/27 01:47:51;;;;;;;0.38;0.38;;;2.20;99.90;;;;;;4954964;28;20657;-67
2022/11/27 01:50:30;;;;;;;0.30;0.30;;;2.30;99.90;;;;;;4954755;28;20169;-69
2022/11/27 01:53:17;;;;;;;0.82;0.82;;;2.30;99.90;;;;;;4955013;28;20193;-70
2022/11/27 01:55:50;;;;;;;0.30;0.30;;;2.20;99.90;;;;;;4955031;28;20184;-69
2022/11/27 01:58:23;;;;;;;1.05;1.05;;;2.40;99.90;;;;;;4955127;28;20182;-69
2022/11/27 02:00:49;;;;;;;0.30;0.30;;;2.30;99.90;;;;;;4954924;28;20182;-69
2022/11/27 02:03:15;;;;;;;0.40;0.40;;;2.30;99.90;;;;;;4958536;28;20214;-69
2022/11/27 02:05:41;;;;;;;0.30;0.30;;;2.40;99.90;;;;;;4958429;28;20401;-68
2022/11/27 02:08:11;;;;;;;0.30;0.30;;;2.30;99.90;;;;;;4958365;28;20263;-69
2022/11/27 02:10:47;;;;;;;0.30;0.30;;;2.20;99.90;;;;;;4958457;28;20162;-70
2022/11/27 02:13:21;;;;;;;0.93;0.93;;;2.20;99.90;;;;;;4958440;28;20206;-70
2022/11/27 02:15:56;;;;;;;0.40;0.40;;;2.20;99.90;;;;;;4958063;28;20723;-69
2022/11/27 02:18:56;;;;;;;0.30;0.30;;;2.20;99.90;;;;;;4958544;28;20196;-69
2022/11/27 02:21:36;;;;;;;0.30;0.30;;;2.20;99.90;;;;;;4958338;28;20178;-69
2022/11/27 02:24:55;;;;;;;0.30;0.30;;;2.20;99.90;;;;;;4958062;28;20237;-69
2022/11/27 02:27:51;;;;;;;0.52;0.52;;;2.20;99.90;;;;;;4934626;28;20213;-69
2022/11/27 02:30:17;;;;;;;0.47;0.47;;;2.20;99.90;;;;;;4957933;29;20178;-70
2022/11/27 02:32:50;;;;;;;0.40;0.40;;;2.20;99.90;;;;;;4958043;28;20508;-69
2022/11/27 02:35:19;;;;;;;0.60;0.60;;;2.10;99.90;;;;;;4957978;28;20529;-67
2022/11/27 02:38:13;;;;;;;0.30;0.30;;;2.10;99.90;;;;;;4957912;28;20193;-70
2022/11/27 02:40:51;;;;;;;0.32;0.32;;;2.20;99.90;;;;;;4957693;28;20256;-69
2022/11/27 02:43:23;;;;;;;0.30;0.30;;;2.20;99.90;;;;;;4957866;28;20195;-68
2022/11/27 02:45:51;;;;;;;0.32;0.32;;;2.20;99.90;;;;;;4957777;28;20175;-68
2022/11/27 02:48:21;;;;;;;0.30;0.30;;;2.20;99.90;;;;;;4957734;28;20172;-69
2022/11/27 02:50:50;;;;;;;0.30;0.30;;;2.10;99.90;;;;;;4957726;28;20230;-70
2022/11/27 02:53:53;;;;;;;0.30;0.30;;;2.20;99.90;;;;;;4957593;28;20237;-68
2022/11/27 02:56:23;;;;;;;0.30;0.30;;;2.20;99.90;;;;;;4957448;28;20249;-68
2022/11/27 02:58:51;;;;;;;0.30;0.30;;;2.20;99.90;;;;;;4957510;28;20605;-67
2022/11/27 03:01:20;;;;;;;0.40;0.40;;;2.10;99.90;;;;;;4957609;28;20530;-69
2022/11/27 03:03:50;;;;;;;0.32;0.32;;;2.10;99.90;;;;;;4957545;28;20227;-70
2022/11/27 03:06:42;;;;;;;0.40;0.40;;;2.10;99.90;;;;;;4957456;28;20203;-70
2022/11/27 03:09:16;;;;;;;0.30;0.30;;;2.10;99.90;;;;;;4956616;29;20202;-70
2022/11/27 03:11:42;;;;;;;0.65;0.65;;;2.10;99.90;;;;;;4957724;28;20180;-69
2022/11/27 03:14:10;;;;;;;0.33;0.33;;;2.20;99.90;;;;;;4956677;28;20178;-68
2022/11/27 03:17:00;;;;;;;1.00;1.00;;;2.20;99.90;;;;;;4956873;28;20530;-70
2022/11/27 03:19:39;;;;;;;0.30;0.30;;;2.30;99.90;;;;;;4957176;28;20179;-69
2022/11/27 03:22:04;;;;;;;0.30;0.30;;;2.30;99.90;;;;;;4957260;28;20194;-69
2022/11/27 03:24:33;;;;;;;0.40;0.40;;;2.30;99.90;;;;;;4956817;28;20251;-69
2022/11/27 03:27:00;;;;;;;0.35;0.35;;;2.20;99.90;;;;;;4957098;28;20198;-70
2022/11/27 03:29:33;;;;;;;0.40;0.40;;;2.20;99.90;;;;;;4957019;28;20178;-68
2022/11/27 03:32:00;;;;;;;0.30;0.30;;;2.20;99.90;;;;;;4957054;28;20174;-70
2022/11/27 03:34:26;;;;;;;0.30;0.30;;;2.10;99.90;;;;;;4957038;28;20175;-68
2022/11/27 03:36:52;;;;;;;0.30;0.30;;;2.10;99.90;;;;;;4956764;28;20206;-68
2022/11/27 03:39:19;;;;;;;0.30;0.30;;;2.00;99.90;;;;;;4956656;28;20175;-70
2022/11/27 03:42:03;;;;;;;0.30;0.30;;;2.10;99.90;;;;;;4956812;28;20186;-68
2022/11/27 03:44:40;;;;;;;0.30;0.30;;;2.00;99.90;;;;;;4956618;28;20697;-68
2022/11/27 03:47:09;;;;;;;0.40;0.40;;;2.10;99.90;;;;;;4956796;28;20655;-67
2022/11/27 03:49:35;;;;;;;0.30;0.30;;;2.10;99.90;;;;;;4956412;28;20168;-69
2022/11/27 03:52:18;;;;;;;0.30;0.30;;;2.10;99.90;;;;;;4956590;28;20176;-69
2022/11/27 03:55:19;;;;;;;0.40;0.40;;;2.20;99.90;;;;;;4956845;28;20541;-69
2022/11/27 03:58:10;;;;;;;0.35;0.35;;;2.10;99.90;;;;;;4945869;29;20685;-69
2022/11/27 04:00:40;;;;;;;0.30;0.30;;;2.10;99.90;;;;;;4956338;28;20183;-70
2022/11/27 04:03:09;;;;;;;0.30;0.30;;;2.10;99.90;;;;;;4956399;28;20200;-68
2022/11/27 04:05:35;;;;;;;0.40;0.40;;;2.10;99.90;;;;;;4956417;28;20184;-68
2022/11/27 04:08:01;;;;;;;0.40;0.40;;;2.20;99.90;;;;;;4956239;28;20190;-68
2022/11/27 04:10:26;;;;;;;0.37;0.37;;;2.10;99.90;;;;;;4956076;28;20185;-70
2022/11/27 04:12:52;;;;;;;0.40;0.40;;;2.10;99.90;;;;;;4956183;28;20190;-69
2022/11/27 04:15:17;;;;;;;0.30;0.30;;;2.20;99.90;;;;;;4956447;28;20187;-69
2022/11/27 04:17:43;;;;;;;0.30;0.30;;;2.20;99.90;;;;;;4955924;28;20218;-68
2022/11/27 04:20:11;;;;;;;0.30;0.30;;;2.30;99.90;;;;;;4955897;28;20179;-69
2022/11/27 04:22:37;;;;;;;0.30;0.30;;;2.20;99.90;;;;;;4956132;28;20651;-68
2022/11/27 04:25:03;;;;;;;0.40;0.40;;;2.30;99.90;;;;;;4955921;28;20211;-68
2022/11/27 04:27:28;;;;;;;0.30;0.30;;;2.40;99.90;;;;;;4955874;28;20599;-70
2022/11/27 04:29:54;;;;;;;0.30;0.30;;;2.50;99.90;;;;;;4955810;28;20183;-68
2022/11/27 04:32:20;;;;;;;0.40;0.40;;;2.50;99.90;;;;;;4956078;28;20165;-69
2022/11/27 04:34:45;;;;;;;0.30;0.30;;;2.50;99.90;;;;;;4955779;28;20230;-69
2022/11/27 04:37:11;;;;;;;0.40;0.40;;;2.50;99.90;;;;;;4955892;28;20267;-68
2022/11/27 04:39:36;;;;;;;0.40;0.40;;;2.60;99.90;;;;;;4955608;28;20670;-69
2022/11/27 04:42:02;;;;;;;0.40;0.40;;;2.70;99.90;;;;;;4955905;28;20638;-70
2022/11/27 04:44:28;;;;;;;0.30;0.30;;;2.70;99.90;;;;;;4955501;28;20252;-69
2022/11/27 04:46:54;;;;;;;0.40;0.40;;;2.80;99.90;;;;;;4955551;28;20486;-68
2022/11/27 04:49:19;;;;;;;0.30;0.30;;;2.90;99.90;;;;;;4955461;28;20173;-69
2022/11/27 04:51:45;;;;;;;0.30;0.30;;;3.00;99.90;;;;;;4955555;28;20651;-69
2022/11/27 04:54:11;;;;;;;0.37;0.37;;;3.10;99.90;;;;;;4955561;28;20188;-69
2022/11/27 04:56:37;;;;;;;0.35;0.35;;;3.10;99.90;;;;;;4955619;28;20244;-70
2022/11/27 04:59:04;;;;;;;0.40;0.40;;;3.10;99.90;;;;;;4955411;28;20188;-69
2022/11/27 05:01:29;;;;;;;0.30;0.30;;;3.20;99.90;;;;;;4955599;28;20176;-68
2022/11/27 05:03:55;;;;;;;0.50;0.50;;;3.40;99.90;;;;;;4955563;28;20563;-69
2022/11/27 05:06:21;;;;;;;0.40;0.40;;;3.40;99.90;;;;;;4955430;28;20865;-70
2022/11/27 05:08:47;;;;;;;0.40;0.40;;;3.40;99.90;;;;;;4955462;28;20197;-68
2022/11/27 05:11:15;;;;;;;0.40;0.40;;;3.40;99.90;;;;;;4954159;29;20639;-69
2022/11/27 05:13:41;;;;;;;1.83;1.73;;;3.50;99.90;;;;;;4955358;28;20205;-70
2022/11/27 05:16:07;;;;;;;1.15;1.15;;;3.40;99.90;;;;;;4955225;28;20213;-69
2022/11/27 05:18:33;;;;;;;0.63;0.63;;;3.40;99.90;;;;;;4955120;28;20177;-70
2022/11/27 05:21:02;;;;;;;0.40;0.40;;;3.40;99.90;;;;;;4955749;28;20189;-70
2022/11/27 05:23:28;;;;;;;0.40;0.40;;;3.40;99.90;;;;;;4955387;28;20248;-68
2022/11/27 05:25:54;;;;;;;0.40;0.40;;;3.40;99.90;;;;;;4955317;28;20224;-70
2022/11/27 05:28:20;;;;;;;0.40;0.40;;;3.50;99.90;;;;;;4955321;28;20907;-68
2022/11/27 05:30:46;;;;;;;0.38;0.38;;;3.60;99.90;;;;;;4955098;28;20264;-68
2022/11/27 05:33:13;;;;;;;0.30;0.30;;;3.70;99.90;;;;;;4955325;28;20264;-70
2022/11/27 05:35:39;;;;;;;0.30;0.30;;;3.90;99.90;;;;;;4955075;28;20177;-68
2022/11/27 05:38:05;;;;;;;0.30;0.30;;;3.80;99.90;;;;;;4959069;28;20552;-69
2022/11/27 05:40:30;;;;;;;0.30;0.30;;;3.80;99.90;;;;;;4958871;28;20763;-67
2022/11/27 05:42:56;;;;;;;0.40;0.40;;;3.70;99.90;;;;;;4958950;28;20491;-67
2022/11/27 05:45:21;;;;;;;0.50;0.50;;;3.70;99.90;;;;;;4959001;28;20180;-69
2022/11/27 05:47:47;;;;;;;0.40;0.40;;;3.80;99.90;;;;;;4958686;28;20550;-67
2022/11/27 05:50:13;;;;;;;0.60;0.60;;;3.80;99.90;;;;;;4958592;28;20650;-69
2022/11/27 05:52:38;;;;;;;0.37;0.37;;;3.90;99.90;;;;;;4958758;28;20177;-69
2022/11/27 05:55:04;;;;;;;0.40;0.40;;;3.90;99.90;;;;;;4958885;28;20197;-70
2022/11/27 05:57:30;;;;;;;0.40;0.40;;;3.90;99.90;;;;;;4958687;28;20268;-68
2022/11/27 05:59:57;;;;;;;0.40;0.40;;;4.00;99.90;;;;;;4958417;28;20201;-70
2022/11/27 06:02:23;;;;;;;0.47;0.47;;;4.00;99.90;;;;;;4958430;28;20585;-68
2022/11/27 06:04:48;;;;;;;0.30;0.30;;;4.00;99.90;;;;;;4958466;28;20213;-68
2022/11/27 06:07:14;;;;;;;4.57;1.33;;;4.00;99.90;;;;;;4958419;28;20746;-69
2022/11/27 06:09:40;;;;;;;0.30;0.30;;;4.00;99.90;;;;;;4958338;28;20201;-70
2022/11/27 06:12:06;;;;;;;0.30;0.30;;;4.00;99.90;;;;;;4958475;28;20590;-68
2022/11/27 06:14:33;;;;;;;0.30;0.30;;;4.00;99.90;;;;;;4958529;28;20182;-70
2022/11/27 06:17:00;;;;;;;0.30;0.30;;;4.00;99.90;;;;;;4958153;28;20488;-68
2022/11/27 06:19:26;;;;;;;0.40;0.40;;;4.00;99.90;;;;;;4956810;29;20241;-70
2022/11/27 06:21:51;;;;;;;0.47;0.47;;;4.00;99.90;;;;;;4958252;28;20178;-68
2022/11/27 06:24:17;;;;;;;0.50;0.50;;;4.00;99.90;;;;;;4958143;28;20209;-70
2022/11/27 06:26:43;;;;;;;0.40;0.40;;;3.90;99.90;;;;;;4956760;28;20444;-68
2022/11/27 06:29:09;;;;;;;2.30;2.20;;;3.80;99.90;;;;;;4957912;28;20401;-69
2022/11/27 06:31:34;;;;;;;0.40;0.40;;;3.90;99.90;;;;;;4957992;28;20188;-70
2022/11/27 06:34:01;;;;;;;0.40;0.40;;;3.90;99.90;;;;;;4957966;28;20643;-68
2022/11/27 06:36:30;;;;;;;0.30;0.30;;;3.80;99.90;;;;;;4958011;28;20867;-69
2022/11/27 06:38:56;;;;;;;0.40;0.40;;;3.90;99.90;;;;;;4957746;28;20647;-68
2022/11/27 06:41:23;;;;;;;0.40;0.40;;;3.90;99.90;;;;;;4957997;28;20318;-68
2022/11/27 06:43:49;;;;;;;0.40;0.40;;;3.80;99.90;;;;;;4957943;28;20204;-68
2022/11/27 06:46:17;;;;;;;0.35;0.35;;;3.90;99.90;;;;;;4957873;28;20560;-67
2022/11/27 06:48:46;;;;;;;0.40;0.40;;;3.90;99.90;;;;;;4956354;28;20638;-69
2022/11/27 06:51:15;;;;;;;0.60;0.60;;;4.00;99.90;;;;;;4957684;28;20280;-69
2022/11/27 06:53:42;;;;;;;0.40;0.40;;;4.00;99.90;;;;;;4957727;28;20185;-69
2022/11/27 06:56:11;;;;;;;0.40;0.40;;;3.90;99.90;;;;;;4957591;28;20268;-70
2022/11/27 06:58:37;;;;;;;0.30;0.30;;;4.00;99.90;;;;;;4957296;28;20538;-69
2022/11/27 07:01:05;;;;;;;0.40;0.40;;;4.00;99.90;;;;;;4957456;28;20189;-70
2022/11/27 07:03:31;;;;;;;0.30;0.30;;;4.10;99.90;;;;;;4957307;28;20980;-69
2022/11/27 07:06:01;;;;;;;0.40;0.40;;;4.10;99.90;;;;;;4957319;28;20276;-70
2022/11/27 07:08:27;;;;;;;0.40;0.40;;;4.10;99.90;;;;;;4957366;28;20177;-68
2022/11/27 07:10:53;;;;;;;0.40;0.40;;;4.10;99.90;;;;;;4957215;28;20173;-69
2022/11/27 07:13:19;;;;;;;0.30;0.30;;;4.10;99.90;;;;;;4957905;28;20178;-68
2022/11/27 07:15:44;;;;;;;0.40;0.40;;;4.20;99.90;;;;;;4957210;28;20185;-69
2022/11/27 07:18:10;;;;;;;0.50;0.50;;;4.30;99.90;;;;;;4957212;28;20165;-69
2022/11/27 07:20:36;;;;;;;0.40;0.40;;;4.30;99.90;;;;;;4957042;28;20174;-67
2022/11/27 07:23:01;;;;;;;0.30;0.30;;;4.30;99.90;;;;;;4957139;28;20713;-68
2022/11/27 07:25:27;;;;;;;0.53;0.53;;;4.30;99.90;;;;;;4957196;28;20405;-69
2022/11/27 07:27:54;;;;;;;0.40;0.40;;;4.30;99.90;;;;;;4956904;28;20658;-68
2022/11/27 07:30:20;;;;;;;0.30;0.30;;;4.20;99.90;;;;;;4956858;28;20627;-68
2022/11/27 07:32:45;;;;;;;0.40;0.40;;;4.30;99.90;;;;;;4956864;28;20185;-69
2022/11/27 07:35:11;;;;;;;0.93;0.93;;;4.40;99.90;;;;;;4957078;28;20185;-68
2022/11/27 07:37:37;;;;;;;1.17;1.17;;;4.50;99.90;;;;;;4956755;28;20277;-67
2022/11/27 07:40:03;;;;;;;0.77;0.77;;;4.60;99.90;;;;;;4956625;28;20169;-69
2022/11/27 07:42:29;;;;;;;1.67;1.58;;;4.60;99.90;;;;;;4956856;28;20177;-68
2022/11/27 07:44:55;;;;;;;0.40;0.40;;;4.50;99.90;;;;;;4956743;28;20205;-68
2022/11/27 07:47:20;;;;;;;1.70;1.13;;;4.50;99.90;;;;;;4956478;28;20433;-68
2022/11/27 07:49:46;;;;;;;0.30;0.30;;;4.50;99.90;;;;;;4956564;28;20187;-68
2022/11/27 07:52:11;;;;;;;0.40;0.40;;;4.60;99.90;;;;;;4956644;28;20704;-69
2022/11/27 07:54:38;;;;;;;0.83;0.83;;;4.70;99.90;;;;;;4956588;28;20201;-68
2022/11/27 07:57:03;;;;;;;0.40;0.40;;;4.80;99.90;;;;;;4955310;28;20205;-68
2022/11/27 07:59:29;;;;;;;0.80;0.60;;;4.80;99.90;;;;;;4955968;28;20548;-68
2022/11/27 08:01:55;;;;;;;0.30;0.30;;;4.90;99.90;;;;;;4956300;28;20182;-68
2022/11/27 08:04:20;;;;;;;0.40;0.40;;;4.90;99.90;;;;;;4956375;28;20228;-69
2022/11/27 08:06:48;;;;;;;0.50;0.50;;;5.00;99.90;;;;;;4956380;28;20189;-68
2022/11/27 08:09:14;;;;;;;1.08;1.08;;;5.00;99.90;;;;;;4955524;29;20224;-67
2022/11/27 08:11:39;;;;;;;0.40;0.40;;;5.00;99.90;;;;;;4956022;28;20178;-67
2022/11/27 08:14:07;;;;;;;0.30;0.30;;;5.10;99.90;;;;;;4956172;28;20634;-68
2022/11/27 08:16:34;;;;;;;0.40;0.40;;;5.10;99.90;;;;;;4956263;28;20217;-72
2022/11/27 08:19:01;;;;;;;0.40;0.40;;;5.40;99.90;;;;;;4956304;28;20186;-70
2022/11/27 08:21:28;;;;;;;0.65;0.52;;;6.00;99.90;;;;;;4956518;28;20254;-69
2022/11/27 08:23:54;;;;;;;0.40;0.40;;;6.60;99.90;;;;;;4955825;28;20210;-69
2022/11/27 08:26:20;;;;;;;0.95;0.95;;;6.50;99.90;;;;;;4955836;28;20570;-69
2022/11/27 08:28:46;;;;;;;0.40;0.40;;;6.70;99.90;;;;;;4956155;28;20172;-69
2022/11/27 08:31:13;;;;;;;0.77;0.77;;;7.10;99.90;;;;;;4954931;28;20255;-68
2022/11/27 08:33:39;;;;;;;2.70;2.08;;;7.00;99.90;;;;;;4956214;28;20596;-68
2022/11/27 08:36:06;;;;;;;0.60;0.60;;;7.20;99.90;;;;;;4955279;28;20255;-68
2022/11/27 08:38:31;;;;;;;1.08;0.98;;;7.50;99.90;;;;;;4956277;28;20200;-68
2022/11/27 08:40:59;;;;;;;0.80;0.80;;;7.70;99.90;;;;;;4955909;28;20253;-69
2022/11/27 08:43:25;;;;;;;0.52;0.52;;;;;;;;;;4956002;28;20578;-69
2022/11/27 08:45:52;;;;;;;0.77;0.77;;;9.70;99.90;;;;;;4955586;28;20177;-67
2022/11/27 08:48:18;;;;;;;0.97;0.97;;;10.00;99.90;;;;;;4955854;28;20304;-68
2022/11/27 08:50:45;;;;;;;0.80;0.80;;;10.80;99.30;;;;;;4955611;28;20516;-68
2022/11/27 08:53:11;;;;;;;0.93;0.93;;;11.00;96.80;;;;;;4956198;28;20891;-68
2022/11/27 08:55:37;;;;;;;0.50;0.50;;;10.80;95.40;;;;;;4955532;28;20450;-70
2022/11/27 08:58:02;;;;;;;0.83;0.73;;;10.70;94.40;;;;;;4955786;28;20794;-71
2022/11/27 09:00:29;;;;;;;3.43;1.67;;;10.60;95.00;;;;;;4955641;28;20405;-69
2022/11/27 09:02:55;;;;;;;2.60;2.40;;;10.70;94.00;;;;;;4955770;28;20749;-70
2022/11/27 09:05:21;;;;;;;1.27;1.27;;;11.00;94.40;;;;;;4955994;28;20498;-71
2022/11/27 09:07:48;;;;;;;2.07;1.97;;;11.70;93.10;;;;;;4956001;28;20189;-70
2022/11/27 09:10:14;;;;;;;1.80;1.70;;;13.00;92.00;;;;;;4955074;28;20165;-70
2022/11/27 09:12:40;;;;;;;2.30;1.30;;;14.80;86.60;;;;;;4955139;28;20926;-71
2022/11/27 09:15:06;;;;;;;2.70;2.50;;;16.40;79.20;;;;;;4955339;28;20525;-69
2022/11/27 09:17:31;;;;;;;2.50;2.30;;;17.20;72.90;;;;;;4955624;28;20227;-69
2022/11/27 09:19:57;;;;;;;2.40;1.93;;;17.00;69.40;;;;;;4953862;29;20420;-69
2022/11/27 09:22:23;;;;;;;0.47;0.47;;;16.50;68.70;;;;;;4955910;28;20176;-69
2022/11/27 09:24:48;;;;;;;0.40;0.40;;;16.70;68.30;;;;;;4954888;28;20207;-69
2022/11/27 09:27:14;;;;;;;0.50;0.50;;;17.80;66.40;;;;;;4954151;28;20626;-70
2022/11/27 09:29:39;;;;;;;0.60;0.57;;;18.90;60.60;;;;;;4955158;28;20520;-69
2022/11/27 09:32:05;;;;;;;0.83;0.83;;;19.50;57.40;;;;;;4954704;28;20180;-71
2022/11/27 09:34:31;;;;;;;1.00;0.70;;;19.30;56.50;;;;;;4955628;28;20181;-69
2022/11/27 09:36:56;;;;;;;0.80;0.80;;;18.50;57.10;;;;;;4955741;28;20739;-69
2022/11/27 09:39:22;;;;;;;1.30;1.20;;;17.50;56.90;;;;;;4954931;28;20259;-70
2022/11/27 09:41:49;;;;;;;0.70;0.43;;;16.20;58.10;;;;;;4955521;28;20258;-70
2022/11/27 09:44:28;;;;;;;0.80;0.80;;;14.90;60.00;;;;;;4955139;28;20203;-69
2022/11/27 09:46:55;;;;;;;1.70;0.70;;;13.90;68.00;;;;;;4955522;28;20486;-69
2022/11/27 09:49:38;;;;;;;0.53;0.53;;;12.60;71.40;;;;;;4955218;28;20422;-70
2022/11/27 09:52:15;;;;;;;0.60;0.60;;;12.10;74.10;;;;;;4954989;28;20841;-69
2022/11/27 09:54:54;;;;;;;0.40;0.40;;;11.60;74.30;;;;;;4955127;28;20408;-69
2022/11/27 09:57:27;;;;;;;3.13;0.87;;;11.40;84.40;;;;;;4954248;28;20429;-69
2022/11/27 09:59:54;;;;;;;2.50;1.47;;;11.20;77.70;;;;;;4954871;28;20413;-69
2022/11/27 10:02:41;;;;;;;0.40;0.40;;;11.00;78.10;;;;;;4954144;28;20420;-70
2022/11/27 10:05:22;;;;;;;0.57;0.57;;;10.50;79.50;;;;;;4954955;28;20452;-67
2022/11/27 10:08:00;;;;;;;0.37;0.37;;;10.20;80.90;;;;;;4955456;28;20765;-69
2022/11/27 10:10:39;;;;;;;0.77;0.77;;;10.00;81.60;;;;;;4955430;28;20400;-69
2022/11/27 10:13:19;;;;;;;0.97;0.67;;;9.90;83.90;;;;;;4955437;28;20197;-69
2022/11/27 10:15:59;;;;;;;0.40;0.40;;;9.80;85.10;;;;;;4955099;28;20493;-69
2022/11/27 10:18:48;;;;;;;11.70;1.13;;;9.70;95.20;;;;;;4954400;28;20182;-67
2022/11/27 10:22:05;;;;;;;0.80;0.80;;;9.50;87.40;;;;;;4953724;28;20555;-68
2022/11/27 10:24:43;;;;;;;0.38;0.38;;;9.40;88.80;;;;;;4926349;28;20221;-70
2022/11/27 10:27:15;;;;;;;0.50;0.50;;;9.50;89.00;;;;;;4958757;28;20193;-67
2022/11/27 10:29:51;;;;;;;0.50;0.50;;;9.50;89.30;;;;;;4958138;28;20174;-69
2022/11/27 10:32:27;;;;;;;2.03;1.92;;;9.50;90.10;;;;;;4958539;28;20177;-68
2022/11/27 10:35:05;;;;;;;1.98;1.88;;;9.50;90.10;;;;;;4958687;28;20523;-69
2022/11/27 10:37:43;;;;;;;0.65;0.65;;;9.40;90.30;;;;;;4958017;28;20222;-71
2022/11/27 10:40:10;;;;;;;0.60;0.60;;;9.30;90.60;;;;;;4957956;28;20204;-70
2022/11/27 10:42:43;;;;;;;1.95;0.60;;;9.50;91.00;;;;;;4958181;28;20620;-70
2022/11/27 10:45:35;;;;;;;0.50;0.50;;;9.70;90.90;;;;;;4957804;28;20634;-72
2022/11/27 10:48:01;;;;;;;2.67;1.17;;;9.80;90.80;;;;;;4957458;28;20175;-72
2022/11/27 10:50:27;;;;;;;0.73;0.73;;;9.70;90.10;;;;;;4957644;28;20511;-72
2022/11/27 10:52:59;;;;;;;0.50;0.50;;;9.80;90.40;;;;;;4958042;28;20202;-70
2022/11/27 10:55:43;;;;;;;0.40;0.40;;;9.90;90.40;;;;;;4957754;28;20769;-71
2022/11/27 10:58:18;;;;;;;0.82;0.82;;;9.90;90.20;;;;;;4957520;28;20165;-70
2022/11/27 11:00:44;;;;;;;1.52;1.23;;;9.70;89.80;;;;;;4957397;28;20196;-71
2022/11/27 11:03:16;;;;;;;3.13;0.87;;;9.80;90.00;;;;;;4957703;28;20206;-72
2022/11/27 11:05:55;;;;;;;2.25;2.15;;;9.80;99.90;;;;;;4957483;28;20622;-70
2022/11/27 11:08:24;;;;;;;0.45;0.45;;;10.00;92.60;;;;;;4957501;28;20244;-72
2022/11/27 11:10:52;;;;;;;0.30;0.30;;;10.10;89.90;;;;;;4956502;28;20588;-70
2022/11/27 11:13:21;;;;;;;4.80;2.15;;;10.20;89.10;;;;;;4957466;28;20653;-69
2022/11/27 11:16:01;;;;;;;2.05;0.60;;;10.10;88.50;;;;;;4956902;28;20203;-68
2022/11/27 11:18:31;;;;;;;3.15;1.75;;;10.20;90.00;;;;;;4957016;28;20184;-68
2022/11/27 11:21:00;;;;;;;2.03;0.98;;;10.10;90.70;;;;;;4957368;28;20245;-69
2022/11/27 11:23:35;;;;;;;0.85;0.60;;;10.20;91.40;;;;;;4957312;28;20228;-68
2022/11/27 11:26:10;;;;;;;2.53;2.43;;;10.30;91.80;;;;;;4957156;28;20192;-69
2022/11/27 11:28:47;;;;;;;0.90;0.90;;;10.20;92.20;;;;;;4957009;28;20401;-68
2022/11/27 11:31:17;;;;;;;0.85;0.85;;;10.20;92.50;;;;;;4957450;28;20401;-69
2022/11/27 11:33:51;;;;;;;0.40;0.40;;;10.30;92.60;;;;;;4956595;28;20213;-68
2022/11/27 11:36:16;;;;;;;0.60;0.60;;;10.40;92.60;;;;;;4956853;28;20196;-69
2022/11/27 11:38:45;;;;;;;0.40;0.40;;;10.40;93.00;;;;;;4956654;28;20174;-69
2022/11/27 11:41:12;;;;;;;0.43;0.43;;;10.50;92.60;;;;;;4956882;28;20401;-69
2022/11/27 11:43:38;;;;;;;1.77;0.65;;;10.50;93.20;;;;;;4956725;28;20539;-69
2022/11/27 11:46:21;;;;;;;0.30;0.30;;;10.50;93.00;;;;;;4956804;28;20189;-68
2022/11/27 11:49:04;;;;;;;0.43;0.43;;;10.60;92.50;;;;;;4955230;29;20413;-69
2022/11/27 11:51:41;;;;;;;0.90;0.90;;;10.60;92.00;;;;;;4956498;28;20169;-70
2022/11/27 11:54:16;;;;;;;0.50;0.50;;;10.70;91.90;;;;;;4956696;28;20413;-68
2022/11/27 11:56:48;;;;;;;0.53;0.53;;;10.70;91.90;;;;;;4955692;28;20440;-69
2022/11/27 11:59:33;;;;;;;0.57;0.57;;;10.80;92.40;;;;;;4956514;29;20925;-70
2022/11/27 12:02:28;;;;;;;1.70;1.27;;;10.90;92.30;;;;;;4955982;29;20464;-69
2022/11/27 12:05:06;;;;;;;0.30;0.30;;;11.00;91.90;;;;;;4954512;29;20532;-69
2022/11/27 12:07:53;;;;;;;1.47;1.00;;;11.10;92.30;;;;;;4954234;28;20425;-69
2022/11/27 12:10:26;;;;;;;0.53;0.53;;;10.90;93.50;;;;;;4954728;28;20467;-70
2022/11/27 12:13:10;;;;;;;0.70;0.70;;;10.90;93.60;;;;;;4954810;28;20424;-70
2022/11/27 12:16:00;;;;;;;0.40;0.40;;;11.00;91.20;;;;;;4955392;28;20452;-71
2022/11/27 12:18:41;;;;;;;1.13;0.87;;;11.00;92.20;;;;;;4956330;28;20603;-69
2022/11/27 12:21:25;;;;;;;0.97;0.97;;;11.10;92.60;;;;;;4955330;28;20440;-68
2022/11/27 12:24:38;;;;;;;0.70;0.70;;;11.10;92.80;;;;;;4956208;28;20512;-70
2022/11/27 12:27:14;;;;;;;0.30;0.30;;;11.10;92.90;;;;;;4922745;28;20443;-69
2022/11/27 12:30:09;;;;;;;0.40;0.40;;;11.20;92.70;;;;;;4956051;28;20753;-70
2022/11/27 12:33:03;;;;;;;0.40;0.40;;;11.20;92.80;;;;;;4956383;28;20476;-70
2022/11/27 12:35:49;;;;;;;0.77;0.77;;;11.40;92.60;;;;;;4934183;28;20468;-70
2022/11/27 12:38:33;;;;;;;1.57;0.57;;;11.50;92.40;;;;;;4956263;29;20385;-71
2022/11/27 12:41:20;;;;;;;0.80;0.80;;;11.50;91.40;;;;;;4956214;28;20440;-71
2022/11/27 12:43:51;;;;;;;0.40;0.40;;;11.50;91.00;;;;;;4955903;28;20485;-70
2022/11/27 12:46:36;;;;;;;0.60;0.50;;;11.60;91.20;;;;;;4955014;28;20428;-71
2022/11/27 12:49:19;;;;;;;0.70;0.70;;;11.60;91.50;;;;;;4955111;29;20420;-70
2022/11/27 12:51:52;;;;;;;1.80;1.70;;;11.60;91.50;;;;;;4955993;28;20404;-70
2022/11/27 12:54:37;;;;;;;0.60;0.60;;;11.60;90.90;;;;;;4956008;28;20448;-70
2022/11/27 12:57:15;;;;;;;0.40;0.40;;;11.60;90.90;;;;;;4954237;28;20926;-70
2022/11/27 12:59:58;;;;;;;0.50;0.50;;;11.50;90.70;;;;;;4955332;28;20463;-70
2022/11/27 13:02:55;;;;;;;0.43;0.43;;;11.50;91.00;;;;;;4954845;28;20417;-69
2022/11/27 13:05:27;;;;;;;0.30;0.30;;;11.50;91.20;;;;;;4953941;29;20440;-69
2022/11/27 13:07:56;;;;;;;0.37;0.37;;;11.40;91.20;;;;;;4954352;28;20425;-70
2022/11/27 13:10:38;;;;;;;0.40;0.40;;;11.40;91.20;;;;;;4955533;28;20505;-71
2022/11/27 13:13:09;;;;;;;0.60;0.60;;;11.30;91.40;;;;;;4954805;28;20816;-71
2022/11/27 13:15:44;;;;;;;0.50;0.50;;;11.20;91.60;;;;;;4955462;28;20460;-70